Meteo Giornale » Osservazioni meteo Italia » Bari-Palese Macchie

ore: 05:50 - Osservazioni Meteo Bari-Palese Macchie
Lat. 41° 8' N Lon. 16° 47' E Alt. 34 metri s.l.m.

sereno Europe/Rome

26 °C

Sereno

Temp. 24 Ore

25 °C

36 °C

Nord

3.7 Km/h

Dew point 14 °C

Umidità 47 %

Visibilità  10 Km

Il sole sorge alle ore 05:19

Il sole tramonta alle ore 20:30

Data e Ora Cielo e Fenomeni T °C DP °C Um. % Pres. hPa Vis. km Vento km/h
Oggi h: 05:50 sereno Sereno 26 14 47 1010 10 N 3.7
Oggi h: 05:20 sereno Sereno 25 14 50 1009 10 E/SE 7.4
Oggi h: 04:50 sereno Sereno 26 14 47 1009 10 N 3.7
Oggi h: 04:20 sereno Sereno 27 14 44 1009 10 S/SO 7.4
Oggi h: 03:50 sereno Sereno 27 14 44 1009 10 S/SO 13
Oggi h: 03:20 sereno Sereno 28 15 45 1009 10 S/SO 11.1
Oggi h: 02:50 sereno Sereno 29 14 39 1009 10 SO 14.8
Oggi h: 02:20 sereno Sereno 29 15 42 1009 10 SO 14.8
Oggi h: 01:50 sereno Sereno 30 15 40 1009 10 SO 16.7
Oggi h: 01:20 sereno Sereno 29 15 42 1009 10 S/SO 11.1
Oggi h: 00:50 sereno Sereno 29 14 39 1010 10 SO 7.4
Oggi h: 00:20 sereno Sereno 30 14 37 1010 10 N 3.7
Ieri h: 23:50 sereno Sereno 30 14 37 1010 10 N 1.8
Ieri h: 23:20 sereno Sereno 30 14 37 1010 10 S/SO 13
Ieri h: 22:50 sereno Sereno 30 14 37 1010 10 SO 13
Ieri h: 22:20 poco_nuvoloso Poco Nuvoloso 31 15 37 1010 8 S/SO 13
Ieri h: 21:50 nuvoloso Nuvoloso 31 16 40 1010 10 S/SO 14.8
Ieri h: 21:20 nuvoloso Nuvoloso 31 16 40 1010 8 N 5.5
Ieri h: 20:50 nuvoloso Nuvoloso 31 16 40 1010 8 N 1.8
Ieri h: 20:20 poco_nuvoloso Poco Nuvoloso 32 16 38 1009 8 N 5.5
Ieri h: 19:50 poco_nuvoloso Poco Nuvoloso 34 14 30 1010 10 N 5.5
Ieri h: 19:20 poco_nuvoloso Poco Nuvoloso 34 14 30 1009 10 E 13
Ieri h: 18:50 poco_nuvoloso Poco Nuvoloso 35 14 28 1009 10 E 9.3
Ieri h: 18:20 sereno Sereno 35 14 28 1009 9 E 13
Ieri h: 17:50 sereno Sereno 34 13 28 1009 8 E 16.7
Ieri h: 17:20 sereno Sereno 35 14 28 1009 8 E/NE 14.8
Ieri h: 16:50 sereno Sereno 35 13 26 1010 8 E/NE 14.8
Ieri h: 16:20 sereno Sereno 35 14 28 1010 8 E/NE 16.7
Ieri h: 15:50 sereno Sereno 36 13 25 1010 8 E 11.1
Ieri h: 15:20 sereno Sereno 35 14 28 1010 8 E 13
Ieri h: 14:50 sereno Sereno 34 13 28 1010 8 E/NE 13
Ieri h: 14:20 sereno Sereno 36 14 26 1010 10 E/NE 14.8
Ieri h: 13:50 sereno Sereno 34 14 30 1010 10 E/NE 13
Ieri h: 13:20 sereno Sereno 32 17 40 1010 8 E/NE 20.3
Ieri h: 12:50 sereno Sereno 34 14 30 1011 8 N/NE 9.3
Ieri h: 12:20 sereno Sereno 33 16 36 1011 8 E/NE 13
Ieri h: 11:50 sereno Sereno 33 16 36 1011 8 NE 9.3
Ieri h: 11:20 sereno Sereno 34 15 32 1011 8 E/NE 13
Ieri h: 10:50 sereno Sereno 33 16 36 1010 8 E/NE 11.1
Ieri h: 10:20 sereno Sereno 35 15 30 1010 8 N 3.7
Ieri h: 09:50 sereno Sereno 33 13 29 1011 8 N 5.5
Ieri h: 09:20 sereno Sereno 32 16 38 1010 8 E 7.4
Ieri h: 08:50 sereno Sereno 31 16 40 1011 8 N 1.8
Ieri h: 08:20 sereno Sereno 30 16 42 1010 8 N 1.8
Ieri h: 07:50 sereno Sereno 28 15 45 1010 10 N 3.7
Ieri h: 07:20 sereno Sereno 27 15 47 1010 10 N 5.5